createdAt,value
2024-01-07T00:02:10.135Z,9.20
2024-01-07T00:04:39.292Z,9.30
2024-01-07T00:07:09.753Z,9.40
2024-01-07T00:09:38.532Z,9.30
2024-01-07T00:12:07.693Z,9.30
2024-01-07T00:14:37.821Z,9.30
2024-01-07T00:17:06.523Z,9.20
2024-01-07T00:19:37.010Z,9.40
2024-01-07T00:22:06.264Z,9.20
2024-01-07T00:24:35.156Z,9.20
2024-01-07T00:27:03.813Z,9.20
2024-01-07T00:29:32.714Z,9.20
2024-01-07T00:32:03.088Z,9.20
2024-01-07T00:34:32.716Z,9.20
2024-01-07T00:37:01.743Z,9.00
2024-01-07T00:39:30.560Z,9.10
2024-01-07T00:41:59.433Z,9.00
2024-01-07T00:44:28.295Z,9.00
2024-01-07T00:46:57.086Z,9.10
2024-01-07T00:49:29.431Z,9.00
2024-01-07T00:51:58.521Z,9.00
2024-01-07T00:54:27.576Z,8.90
2024-01-07T00:56:56.434Z,9.00
2024-01-07T00:59:25.317Z,9.00
2024-01-07T01:01:54.442Z,9.00
2024-01-07T01:04:23.481Z,9.00
2024-01-07T01:06:53.942Z,9.00
2024-01-07T01:09:23.022Z,9.00
2024-01-07T01:11:52.343Z,9.00
2024-01-07T01:14:21.255Z,8.90
2024-01-07T01:16:50.258Z,9.00
2024-01-07T01:19:19.735Z,8.90
2024-01-07T01:21:48.801Z,8.90
2024-01-07T01:24:19.278Z,8.90
2024-01-07T01:26:48.324Z,8.70
2024-01-07T01:29:16.995Z,8.70
2024-01-07T01:31:45.654Z,8.60
2024-01-07T01:34:15.419Z,8.60
2024-01-07T01:36:44.185Z,8.50
2024-01-07T01:39:12.896Z,8.60
2024-01-07T01:41:42.995Z,8.80
2024-01-07T01:44:11.886Z,8.70
2024-01-07T01:46:40.556Z,8.70
2024-01-07T01:49:09.397Z,8.60
2024-01-07T01:51:38.287Z,8.60
2024-01-07T01:54:07.805Z,8.50
2024-01-07T01:56:36.725Z,8.60
2024-01-07T01:59:05.809Z,8.60
2024-01-07T02:01:34.594Z,8.70
2024-01-07T02:04:03.389Z,8.60
2024-01-07T02:06:32.304Z,8.70
2024-01-07T02:09:01.654Z,8.70
2024-01-07T02:11:30.341Z,8.60
2024-01-07T02:13:58.979Z,8.60
2024-01-07T02:16:29.191Z,8.40
2024-01-07T02:18:57.997Z,8.50
2024-01-07T02:21:26.839Z,8.40
2024-01-07T02:23:55.565Z,8.50
2024-01-07T02:26:26.752Z,8.40
2024-01-07T02:28:55.740Z,8.40
2024-01-07T02:31:24.456Z,8.40
2024-01-07T02:33:53.321Z,8.40
2024-01-07T02:36:21.999Z,8.40
2024-01-07T02:38:50.612Z,8.50
2024-01-07T02:41:19.669Z,8.50
2024-01-07T02:43:49.839Z,8.30
2024-01-07T02:46:18.483Z,8.30
2024-01-07T02:48:47.189Z,8.20
2024-01-07T02:51:16.017Z,8.30
2024-01-07T02:53:43.696Z,8.30
2024-01-07T02:56:12.358Z,8.30
2024-01-07T02:58:41.061Z,8.30
2024-01-07T03:01:16.198Z,8.50
2024-01-07T03:03:44.876Z,8.40
2024-01-07T03:06:13.637Z,8.30
2024-01-07T03:08:42.336Z,8.30
2024-01-07T03:11:11.063Z,8.40
2024-01-07T03:13:39.697Z,8.20
2024-01-07T03:16:09.162Z,8.30
2024-01-07T03:18:39.467Z,8.40
2024-01-07T03:21:08.173Z,8.40
2024-01-07T03:23:38.659Z,8.30
2024-01-07T03:26:07.488Z,8.30
2024-01-07T03:28:36.117Z,8.30
2024-01-07T03:31:06.514Z,8.30
2024-01-07T03:33:35.434Z,8.30
2024-01-07T03:36:08.722Z,8.40
2024-01-07T03:38:37.407Z,8.20
2024-01-07T03:41:06.322Z,8.10
2024-01-07T03:43:35.158Z,8.30
2024-01-07T03:46:03.875Z,8.20
2024-01-07T03:48:32.741Z,8.30
2024-01-07T03:51:01.726Z,8.30
2024-01-07T03:53:32.041Z,8.30
2024-01-07T03:56:01.213Z,8.30
2024-01-07T03:58:30.267Z,8.30
2024-01-07T04:00:59.419Z,8.30
2024-01-07T04:03:28.525Z,8.30
2024-01-07T04:05:57.534Z,8.40
2024-01-07T04:08:26.639Z,8.50
2024-01-07T04:10:57.044Z,8.60
2024-01-07T04:13:26.068Z,8.50
2024-01-07T04:15:55.222Z,8.40
2024-01-07T04:18:24.681Z,8.40
2024-01-07T04:20:53.721Z,8.30
2024-01-07T04:23:22.809Z,8.40
2024-01-07T04:25:52.083Z,8.30
2024-01-07T04:28:22.393Z,8.30
2024-01-07T04:30:51.866Z,8.30
2024-01-07T04:33:20.957Z,8.40
2024-01-07T04:35:49.887Z,8.40
2024-01-07T04:38:18.935Z,8.30
2024-01-07T04:40:47.962Z,8.20
2024-01-07T04:43:16.942Z,8.20
2024-01-07T04:45:47.465Z,8.20
2024-01-07T04:48:16.738Z,8.30
2024-01-07T04:50:45.801Z,8.30
2024-01-07T04:53:14.728Z,8.30
2024-01-07T04:55:42.783Z,8.30
2024-01-07T04:58:11.763Z,8.40
2024-01-07T05:00:40.819Z,8.10
2024-01-07T05:03:11.279Z,8.20
2024-01-07T05:05:40.233Z,8.20
2024-01-07T05:08:09.534Z,8.10
2024-01-07T05:10:38.553Z,8.20
2024-01-07T05:13:08.205Z,8.30
2024-01-07T05:15:37.837Z,8.30
2024-01-07T05:18:11.847Z,8.30
2024-01-07T05:20:41.058Z,8.30
2024-01-07T05:23:09.999Z,8.10
2024-01-07T05:25:39.066Z,8.30
2024-01-07T05:28:08.307Z,8.40
2024-01-07T05:30:37.508Z,8.30
2024-01-07T05:33:06.997Z,8.40
2024-01-07T05:35:37.915Z,8.30
2024-01-07T05:38:07.104Z,8.30
2024-01-07T05:40:35.988Z,8.30
2024-01-07T05:43:05.039Z,8.40
2024-01-07T05:45:34.256Z,8.40
2024-01-07T05:48:03.300Z,8.40
2024-01-07T05:50:32.290Z,8.10
2024-01-07T05:53:02.710Z,8.20
2024-01-07T05:55:31.646Z,8.30
2024-01-07T05:58:00.698Z,8.20
2024-01-07T06:00:29.825Z,8.20
2024-01-07T06:02:58.823Z,8.30
2024-01-07T06:05:28.345Z,8.40
2024-01-07T06:07:57.307Z,8.10
2024-01-07T06:10:27.835Z,8.20
2024-01-07T06:12:56.821Z,8.00
2024-01-07T06:15:25.974Z,8.30
2024-01-07T06:17:55.400Z,8.30
2024-01-07T06:20:24.480Z,8.20
2024-01-07T06:22:53.400Z,8.10
2024-01-07T06:25:22.573Z,8.00
2024-01-07T06:27:52.997Z,7.90
2024-01-07T06:30:22.122Z,7.90
2024-01-07T06:32:51.217Z,8.10
2024-01-07T06:35:20.202Z,8.00
2024-01-07T06:37:49.318Z,8.00
2024-01-07T06:40:18.349Z,8.00
2024-01-07T06:42:49.076Z,8.00
2024-01-07T06:45:19.949Z,7.90
2024-01-07T06:47:49.005Z,8.00
2024-01-07T06:50:18.366Z,8.00
2024-01-07T06:52:47.322Z,8.00
2024-01-07T06:55:16.496Z,7.90
2024-01-07T06:57:45.548Z,8.00
2024-01-07T07:00:16.543Z,8.10
2024-01-07T07:02:46.966Z,8.20
2024-01-07T07:05:15.965Z,8.20
2024-01-07T07:07:44.892Z,8.10
2024-01-07T07:10:14.143Z,8.10
2024-01-07T07:12:43.323Z,8.00
2024-01-07T07:15:12.396Z,8.20
2024-01-07T07:17:41.601Z,8.00
2024-01-07T07:20:14.300Z,8.00
2024-01-07T07:22:43.461Z,8.10
2024-01-07T07:25:12.600Z,8.00
2024-01-07T07:27:41.646Z,8.10
2024-01-07T07:30:11.026Z,8.10
2024-01-07T07:32:42.929Z,8.00
2024-01-07T07:35:13.449Z,8.20
2024-01-07T07:37:42.464Z,8.20
2024-01-07T07:40:14.438Z,8.20
2024-01-07T07:42:43.676Z,8.20
2024-01-07T07:45:13.064Z,8.00
2024-01-07T07:47:46.465Z,8.20
2024-01-07T07:50:17.482Z,8.20
2024-01-07T07:52:46.950Z,8.30
2024-01-07T07:55:16.017Z,8.30
2024-01-07T07:57:44.005Z,8.30
2024-01-07T08:00:14.161Z,8.40
2024-01-07T08:02:43.423Z,8.40
2024-01-07T08:05:12.334Z,8.50
2024-01-07T08:07:42.701Z,8.50
2024-01-07T08:10:12.173Z,8.50
2024-01-07T08:12:41.199Z,8.50
2024-01-07T08:15:11.214Z,8.60
2024-01-07T08:17:40.351Z,8.60
2024-01-07T08:20:10.342Z,8.70
2024-01-07T08:22:39.477Z,8.70
2024-01-07T08:25:10.607Z,8.80
2024-01-07T08:27:39.922Z,8.90
2024-01-07T08:30:10.238Z,8.90
2024-01-07T08:32:39.173Z,8.70
2024-01-07T08:35:09.154Z,9.00
2024-01-07T08:37:38.314Z,9.00
2024-01-07T08:40:10.959Z,9.10
2024-01-07T08:42:42.581Z,9.20
2024-01-07T08:45:12.506Z,9.30
2024-01-07T08:47:45.141Z,9.40
2024-01-07T08:50:15.181Z,9.30
2024-01-07T08:52:44.279Z,9.20
2024-01-07T08:55:14.865Z,9.40
2024-01-07T08:57:43.958Z,9.40
2024-01-07T09:00:13.855Z,9.50
2024-01-07T09:02:44.208Z,9.40
2024-01-07T09:05:15.075Z,9.50
2024-01-07T09:07:44.453Z,9.50
2024-01-07T09:10:15.784Z,9.60
2024-01-07T09:12:45.114Z,9.70
2024-01-07T09:15:14.108Z,9.80
2024-01-07T09:17:43.248Z,9.80
2024-01-07T09:20:13.431Z,9.80
2024-01-07T09:22:43.213Z,9.80
2024-01-07T09:25:12.769Z,9.80
2024-01-07T09:27:44.229Z,9.80
2024-01-07T09:30:16.056Z,9.90
2024-01-07T09:32:45.278Z,9.90
2024-01-07T09:35:14.313Z,10.00
2024-01-07T09:37:43.496Z,10.10
2024-01-07T09:40:13.938Z,10.10
2024-01-07T09:42:44.628Z,10.10
2024-01-07T09:45:16.127Z,10.20
2024-01-07T09:47:47.911Z,10.20
2024-01-07T09:50:17.741Z,10.30
2024-01-07T09:52:48.312Z,10.40
2024-01-07T09:55:24.858Z,10.40
2024-01-07T09:57:55.545Z,10.50
2024-01-07T10:00:24.721Z,10.60
2024-01-07T10:02:53.773Z,10.60
2024-01-07T10:05:22.887Z,10.70
2024-01-07T10:07:51.876Z,10.70
2024-01-07T10:10:21.178Z,10.80
2024-01-07T10:12:50.425Z,10.90
2024-01-07T10:15:20.929Z,11.00
2024-01-07T10:17:50.125Z,11.00
2024-01-07T10:20:21.032Z,11.10
2024-01-07T10:22:52.946Z,11.00
2024-01-07T10:25:22.310Z,11.20
2024-01-07T10:27:51.552Z,11.20
2024-01-07T10:30:23.460Z,11.30
2024-01-07T10:32:52.687Z,11.30
2024-01-07T10:35:24.588Z,11.40
2024-01-07T10:37:53.910Z,11.50
2024-01-07T10:40:23.136Z,11.50
2024-01-07T10:42:53.693Z,11.50
2024-01-07T10:45:24.677Z,11.60
2024-01-07T10:47:58.113Z,11.60
2024-01-07T10:50:29.310Z,11.70
2024-01-07T10:53:05.884Z,11.70
2024-01-07T10:55:38.464Z,11.70
2024-01-07T10:58:08.127Z,11.70
2024-01-07T11:00:40.750Z,11.80
2024-01-07T11:03:14.650Z,11.80
2024-01-07T11:05:49.896Z,11.90
2024-01-07T11:08:26.680Z,12.00
2024-01-07T11:11:02.283Z,12.00
2024-01-07T11:13:39.764Z,12.00
2024-01-07T11:16:12.702Z,12.00
2024-01-07T11:18:42.980Z,12.00
2024-01-07T11:21:12.225Z,12.10
2024-01-07T11:23:47.672Z,12.10
2024-01-07T11:26:16.994Z,12.10
2024-01-07T11:28:49.278Z,12.20
2024-01-07T11:31:21.128Z,12.30
2024-01-07T11:33:51.542Z,12.40
2024-01-07T11:36:21.559Z,12.40
2024-01-07T11:38:54.799Z,12.50
2024-01-07T11:41:26.258Z,12.50
2024-01-07T11:43:56.837Z,12.60
2024-01-07T11:46:27.658Z,12.60
2024-01-07T11:49:00.528Z,12.60
2024-01-07T11:51:32.475Z,12.60
2024-01-07T11:54:02.904Z,12.60
2024-01-07T11:56:32.126Z,12.60
2024-01-07T11:59:01.155Z,12.70
2024-01-07T12:01:31.953Z,12.70
2024-01-07T12:04:01.250Z,12.80
2024-01-07T12:06:30.594Z,12.80
2024-01-07T12:08:59.618Z,12.80
2024-01-07T12:11:29.142Z,12.80
2024-01-07T12:13:58.646Z,12.80
2024-01-07T12:16:28.152Z,12.90
2024-01-07T12:18:58.911Z,13.00
2024-01-07T12:21:29.996Z,12.90
2024-01-07T12:24:00.309Z,13.00
2024-01-07T12:26:30.808Z,13.00
2024-01-07T12:29:04.918Z,13.00
2024-01-07T12:31:35.259Z,13.00
2024-01-07T12:34:06.994Z,13.00
2024-01-07T12:36:36.409Z,13.00
2024-01-07T12:39:05.676Z,13.00
2024-01-07T12:41:34.744Z,13.10
2024-01-07T12:44:04.676Z,13.10
2024-01-07T12:46:33.935Z,13.20
2024-01-07T12:49:03.146Z,13.20
2024-01-07T12:51:34.666Z,13.20
2024-01-07T12:54:04.981Z,13.30
2024-01-07T12:56:34.145Z,13.30
2024-01-07T12:59:03.226Z,13.40
2024-01-07T13:01:32.839Z,13.40
2024-01-07T13:04:02.130Z,13.40
2024-01-07T13:06:32.773Z,13.50
2024-01-07T13:09:05.552Z,13.40
2024-01-07T13:11:35.318Z,13.50
2024-01-07T13:14:04.771Z,13.60
2024-01-07T13:16:33.933Z,13.60
2024-01-07T13:19:05.585Z,13.60
2024-01-07T13:21:39.683Z,13.60
2024-01-07T13:24:09.720Z,13.60
2024-01-07T13:26:38.768Z,13.70
2024-01-07T13:29:07.820Z,13.70
2024-01-07T13:31:36.999Z,13.70
2024-01-07T13:34:06.348Z,13.80
2024-01-07T13:36:37.193Z,13.80
2024-01-07T13:39:08.728Z,13.80
2024-01-07T13:41:38.142Z,13.80
2024-01-07T13:44:08.527Z,13.90
2024-01-07T13:46:37.492Z,13.80
2024-01-07T13:49:08.941Z,13.90
2024-01-07T13:51:39.978Z,13.90
2024-01-07T13:54:10.785Z,13.90
2024-01-07T13:56:43.202Z,14.00
2024-01-07T13:59:12.698Z,14.00
2024-01-07T14:01:43.780Z,14.00
2024-01-07T14:04:13.299Z,14.00
2024-01-07T14:06:45.116Z,14.10
2024-01-07T14:09:14.343Z,14.10
2024-01-07T14:11:43.516Z,14.10
2024-01-07T14:14:12.696Z,14.20
2024-01-07T14:16:43.235Z,14.10
2024-01-07T14:19:12.707Z,14.10
2024-01-07T14:21:43.150Z,14.00
2024-01-07T14:24:12.129Z,14.00
2024-01-07T14:26:41.058Z,14.10
2024-01-07T14:29:16.561Z,14.00
2024-01-07T14:31:47.930Z,14.00
2024-01-07T14:34:17.280Z,14.00
2024-01-07T14:36:47.738Z,14.10
2024-01-07T14:39:16.839Z,14.00
2024-01-07T14:41:45.892Z,14.10
2024-01-07T14:44:16.643Z,14.10
2024-01-07T14:46:46.025Z,14.10
2024-01-07T14:49:15.386Z,14.10
2024-01-07T14:51:44.780Z,14.10
2024-01-07T14:54:15.366Z,14.10
2024-01-07T14:56:44.780Z,14.10
2024-01-07T14:59:13.826Z,14.10
2024-01-07T15:01:45.182Z,14.10
2024-01-07T15:04:14.519Z,14.10
2024-01-07T15:06:45.273Z,14.10
2024-01-07T15:09:16.102Z,14.10
2024-01-07T15:11:48.395Z,14.10
2024-01-07T15:14:17.987Z,14.10
2024-01-07T15:16:50.207Z,14.10
2024-01-07T15:19:20.852Z,14.00
2024-01-07T15:21:49.967Z,13.90
2024-01-07T15:24:20.652Z,13.90
2024-01-07T15:26:50.507Z,13.90
2024-01-07T15:29:21.120Z,13.90
2024-01-07T15:31:50.350Z,13.90
2024-01-07T15:34:20.180Z,13.80
2024-01-07T15:36:49.492Z,13.90
2024-01-07T15:39:20.734Z,13.90
2024-01-07T15:41:49.832Z,13.80
2024-01-07T15:44:18.725Z,13.80
2024-01-07T15:46:47.721Z,13.80
2024-01-07T15:49:16.831Z,13.80
2024-01-07T15:51:45.956Z,13.70
2024-01-07T15:54:14.975Z,14.00
2024-01-07T15:56:45.611Z,14.00
2024-01-07T15:59:14.609Z,13.90
2024-01-07T16:01:49.517Z,13.80
2024-01-07T16:04:23.677Z,13.60
2024-01-07T16:06:53.388Z,13.50
2024-01-07T16:09:23.692Z,13.50
2024-01-07T16:11:54.098Z,13.50
2024-01-07T16:14:26.290Z,13.40
2024-01-07T16:16:55.469Z,13.30
2024-01-07T16:19:25.411Z,13.30
2024-01-07T16:21:54.577Z,13.30
2024-01-07T16:24:23.717Z,13.10
2024-01-07T16:27:10.141Z,13.20
2024-01-07T16:29:45.168Z,13.20
2024-01-07T16:32:15.654Z,13.10
2024-01-07T16:34:45.225Z,13.10
2024-01-07T16:37:15.715Z,13.10
2024-01-07T16:39:44.871Z,13.00
2024-01-07T16:42:15.385Z,13.00
2024-01-07T16:44:44.406Z,12.90
2024-01-07T16:47:15.118Z,12.90
2024-01-07T16:52:16.835Z,12.60
2024-01-07T16:54:47.878Z,12.70
2024-01-07T16:57:18.384Z,12.50
2024-01-07T16:59:48.407Z,12.60
2024-01-07T17:02:17.493Z,12.40
2024-01-07T17:04:46.785Z,12.60
2024-01-07T17:07:16.211Z,12.40
2024-01-07T17:09:45.297Z,12.50
2024-01-07T17:12:14.364Z,12.50
2024-01-07T17:14:44.783Z,12.50
2024-01-07T17:17:13.782Z,12.50
2024-01-07T17:19:43.982Z,12.50
2024-01-07T17:22:13.640Z,12.40
2024-01-07T17:24:43.919Z,12.40
2024-01-07T17:27:12.897Z,12.20
2024-01-07T17:29:43.564Z,12.10
2024-01-07T17:32:13.507Z,12.30
2024-01-07T17:34:42.719Z,12.30
2024-01-07T17:37:11.898Z,12.20
2024-01-07T17:39:42.767Z,12.20
2024-01-07T17:42:11.792Z,12.20
2024-01-07T17:44:43.591Z,12.20
2024-01-07T17:47:17.072Z,12.20
2024-01-07T17:49:47.467Z,12.00
2024-01-07T17:52:16.519Z,12.00
2024-01-07T17:54:45.596Z,11.80
2024-01-07T17:57:16.162Z,11.90
2024-01-07T17:59:45.361Z,11.80
2024-01-07T18:02:16.036Z,11.90
2024-01-07T18:04:45.485Z,11.90
2024-01-07T18:07:15.991Z,11.80
2024-01-07T18:09:45.695Z,11.60
2024-01-07T18:12:17.191Z,11.70
2024-01-07T18:14:46.853Z,11.70
2024-01-07T18:17:17.359Z,11.80
2024-01-07T18:19:46.537Z,11.80
2024-01-07T18:22:15.523Z,11.70
2024-01-07T18:24:44.570Z,11.70
2024-01-07T18:27:13.824Z,11.70
2024-01-07T18:29:42.744Z,11.50
2024-01-07T18:32:12.813Z,11.40
2024-01-07T18:34:45.241Z,11.50
2024-01-07T18:37:14.663Z,11.30
2024-01-07T18:39:43.872Z,11.30
2024-01-07T18:42:12.808Z,11.40
2024-01-07T18:44:41.797Z,11.60
2024-01-07T18:47:10.810Z,11.60
2024-01-07T18:49:40.967Z,11.70
2024-01-07T18:52:13.976Z,11.50
2024-01-07T18:54:43.718Z,11.40
2024-01-07T18:57:13.579Z,11.40
2024-01-07T18:59:42.719Z,11.30
2024-01-07T19:02:11.830Z,11.40
2024-01-07T19:04:41.433Z,11.40
2024-01-07T19:07:12.078Z,11.40
2024-01-07T19:09:41.286Z,11.40
2024-01-07T19:12:10.477Z,11.40
2024-01-07T19:14:39.511Z,11.30
2024-01-07T19:17:10.525Z,11.40
2024-01-07T19:19:40.043Z,11.40
2024-01-07T19:22:09.648Z,11.30
2024-01-07T19:24:40.978Z,11.20
2024-01-07T19:27:10.010Z,11.30
2024-01-07T19:29:39.136Z,11.40
2024-01-07T19:32:08.716Z,11.30
2024-01-07T19:34:37.697Z,11.10
2024-01-07T19:37:06.975Z,11.20
2024-01-07T19:39:37.407Z,11.30
2024-01-07T19:42:08.798Z,11.20
2024-01-07T19:44:39.379Z,11.30
2024-01-07T19:47:08.872Z,11.30
2024-01-07T19:49:37.961Z,11.30
2024-01-07T19:52:08.112Z,11.30
2024-01-07T19:54:38.358Z,11.00
2024-01-07T19:57:08.732Z,11.00
2024-01-07T19:59:38.082Z,11.10
2024-01-07T20:02:08.263Z,11.20
2024-01-07T20:04:37.926Z,11.10
2024-01-07T20:07:07.511Z,11.10
2024-01-07T20:09:36.747Z,11.10
2024-01-07T20:12:08.564Z,11.10
2024-01-07T20:14:38.574Z,10.90
2024-01-07T20:17:08.216Z,11.00
2024-01-07T20:19:38.657Z,10.90
2024-01-07T20:22:09.102Z,10.90
2024-01-07T20:24:40.824Z,10.80
2024-01-07T20:27:12.191Z,10.90
2024-01-07T20:29:41.875Z,10.90
2024-01-07T20:32:11.348Z,10.70
2024-01-07T20:34:40.982Z,10.80
2024-01-07T20:37:10.372Z,10.90
2024-01-07T20:39:39.718Z,10.80
2024-01-07T20:42:22.533Z,10.80
2024-01-07T20:45:00.242Z,10.70
2024-01-07T20:47:29.926Z,10.50
2024-01-07T20:49:59.305Z,10.40
2024-01-07T20:52:29.413Z,10.60
2024-01-07T20:54:58.883Z,10.60
2024-01-07T20:57:30.572Z,10.50
2024-01-07T20:59:59.772Z,10.60
2024-01-07T21:02:29.793Z,10.60
2024-01-07T21:04:59.632Z,10.60
2024-01-07T21:07:31.812Z,10.60
2024-01-07T21:10:04.157Z,10.50
2024-01-07T21:12:35.301Z,10.50
2024-01-07T21:15:05.070Z,10.50
2024-01-07T21:17:36.321Z,10.60
2024-01-07T21:20:06.734Z,10.50
2024-01-07T21:22:36.385Z,10.50
2024-01-07T21:25:06.884Z,10.50
2024-01-07T21:27:38.589Z,10.50
2024-01-07T21:30:09.918Z,10.50
2024-01-07T21:32:43.240Z,10.60
2024-01-07T21:35:12.981Z,10.50
2024-01-07T21:37:45.235Z,10.50
2024-01-07T21:40:16.792Z,10.30
2024-01-07T21:42:47.895Z,10.40
2024-01-07T21:45:17.536Z,10.40
2024-01-07T21:47:46.937Z,10.40
2024-01-07T21:50:17.357Z,10.30
2024-01-07T21:52:55.560Z,10.30
2024-01-07T21:55:25.014Z,10.40
2024-01-07T21:57:56.159Z,10.40
2024-01-07T22:00:25.267Z,10.30
2024-01-07T22:02:54.310Z,10.30
2024-01-07T22:05:23.545Z,10.30
2024-01-07T22:07:52.643Z,10.30
2024-01-07T22:10:21.612Z,10.10
2024-01-07T22:12:50.741Z,10.20
2024-01-07T22:15:21.045Z,10.10
2024-01-07T22:17:50.244Z,10.20
2024-01-07T22:20:19.451Z,10.20
2024-01-07T22:22:49.341Z,10.30
2024-01-07T22:25:18.920Z,10.20
2024-01-07T22:27:47.806Z,10.10
2024-01-07T22:30:17.243Z,10.10
2024-01-07T22:32:48.624Z,10.20
2024-01-07T22:35:17.970Z,10.20
2024-01-07T22:37:46.952Z,10.20
2024-01-07T22:40:16.128Z,10.20
2024-01-07T22:42:45.215Z,10.20
2024-01-07T22:45:14.800Z,10.20
2024-01-07T22:47:43.998Z,10.00
2024-01-07T22:50:14.915Z,10.10
2024-01-07T22:52:44.191Z,10.10
2024-01-07T22:55:13.254Z,10.10
2024-01-07T22:57:42.314Z,10.20
2024-01-07T23:00:16.159Z,10.10
2024-01-07T23:02:44.484Z,10.00
2024-01-07T23:05:14.995Z,10.00
2024-01-07T23:07:44.584Z,9.90
2024-01-07T23:10:15.408Z,10.10
2024-01-07T23:12:44.932Z,10.10
2024-01-07T23:15:14.372Z,10.10
2024-01-07T23:17:43.415Z,10.10
2024-01-07T23:20:14.920Z,10.00
2024-01-07T23:22:43.914Z,10.00
2024-01-07T23:25:12.941Z,10.00
2024-01-07T23:27:42.772Z,9.80
2024-01-07T23:30:12.547Z,10.00
2024-01-07T23:32:41.790Z,9.90
2024-01-07T23:35:11.539Z,9.90
2024-01-07T23:37:42.030Z,9.80
2024-01-07T23:40:12.152Z,9.90
2024-01-07T23:42:41.084Z,9.90
2024-01-07T23:45:10.590Z,9.90
2024-01-07T23:47:39.877Z,9.80
2024-01-07T23:50:10.026Z,9.90
2024-01-07T23:52:39.611Z,9.90
2024-01-07T23:55:10.827Z,9.70
2024-01-07T23:57:39.871Z,9.80
